首页
METAR-TAF:

METAR-TAF

机场 :

苏丹阿都阿兹沙机场

梳邦再也, 马来西亚

纬度: 03-07N, 经度: 101-32E, 海拔: 27米

当前天气观测

该预报发布于35分钟前的14:00 UTC
风速1节,风向多变
温度 25°C
湿度 94%
气压 1012 hPa
能见度10公里或以上
少量云层高于1000英尺

METAR: WMSA 171400Z VRB01KT 9999 FEW010 25/24 Q1012

时间: 22:35 (14:35 UTC)

预报

该预报发布于3小时和35分钟前的11:00 UTC
预报有效从17日的 12点(UTC)到 18日的 12点(UTC)
风速3节,风向多变
能見度: 8000
少量云层高于1000英尺
几率 30% :
短暂存在
从 18日的 02点(UTC)到 18日的 06点(UTC)
能見度: 5000
少量云层高于1700英尺, 积雨云.
散云层高于1800英尺
雷暴, 雨,

TAF: WMSA 171100Z 1712/1812 VRB03KT 8000 FEW010 PROB30 TEMPO 1802/1806 5000 TSRA FEW017CB SCT018

超过4000个机场的气象观测和天气预报(METAR&TAF报告)。

可查询的气象台以黄色和红色小点在地图上表示。

将鼠标移到小点上方,可查看气象台名称。

然后点击查看天气观测和预报。

如需切换地图:点击带黑十字的绿色按钮放大地图;点击带横线的绿色按钮缩小地图;或者点击绿色箭头查看邻近地区的地图。


METAR-TAF: